Time;durP1;ratioP1;P1;durP2;ratioP2;P2;SDS_P1;SDS_P2;PMS_P1;PMS_P2;Temp;Humidity;BMP_temperature;BMP_pressure;BME280_temperature;BME280_humidity;BME280_pressure;Samples;Min_cycle;Max_cycle;Signal;HPM_P1;HPM_P2
2022/05/05 00:02:08;;;;;;;18.42;16.52;;;;;;;13.91;77.37;99069.09;2623795;54;20158;-65
2022/05/05 00:04:38;;;;;;;16.58;14.73;;;;;;;13.94;77.14;99068.69;2623777;54;20041;-65
2022/05/05 00:07:10;;;;;;;20.25;18.08;;;;;;;13.95;76.98;99070.31;2622685;39;20507;-64
2022/05/05 00:09:39;;;;;;;20.77;18.08;;;;;;;13.92;76.88;99061.94;2623857;39;20447;-64
2022/05/05 00:14:53;;;;;;;21.77;18.00;;;;;;;13.86;77.25;99066.25;2623037;54;20026;-65
2022/05/05 00:17:23;;;;;;;21.13;18.70;;;;;;;13.86;77.39;99067.06;2622904;54;20045;-64
2022/05/05 00:19:53;;;;;;;25.92;23.15;;;;;;;13.85;77.41;99064.63;2622612;54;20026;-64
2022/05/05 00:22:26;;;;;;;30.63;25.83;;;;;;;13.79;77.26;99062.78;2622395;54;20026;-64
2022/05/05 00:24:56;;;;;;;28.52;23.13;;;;;;;13.76;77.33;99061.38;2622842;54;20823;-64
2022/05/05 00:27:25;;;;;;;28.30;22.40;;;;;;;13.78;77.22;99058.50;2622027;54;20557;-63
2022/05/05 00:29:55;;;;;;;24.67;22.08;;;;;;;13.82;77.25;99071.16;2622455;54;20029;-64
2022/05/05 00:32:25;;;;;;;25.45;22.45;;;;;;;13.84;76.93;99066.47;2622953;54;20033;-64
2022/05/05 00:34:54;;;;;;;28.17;23.80;;;;;;;13.85;76.78;99065.44;2622467;47;20042;-65
2022/05/05 00:37:27;;;;;;;24.95;22.38;;;;;;;13.94;76.64;99068.69;2622482;39;20485;-64
2022/05/05 00:39:56;;;;;;;25.52;22.90;;;;;;;13.97;76.71;99065.63;2622931;54;20042;-65
2022/05/05 00:42:27;;;;;;;27.70;24.73;;;;;;;13.95;76.83;99062.34;2622753;39;20418;-65
2022/05/05 00:44:56;;;;;;;28.88;24.73;;;;;;;13.96;76.77;99071.13;2623267;54;20049;-64
2022/05/05 00:47:26;;;;;;;24.20;21.50;;;;;;;13.90;76.39;99066.66;2623003;54;20026;-65
2022/05/05 00:50:12;;;;;;;25.45;22.77;;;;;;;13.66;77.15;99058.31;2625246;54;20031;-63
2022/05/05 00:52:47;;;;;;;24.70;22.08;;;;;;;13.59;78.05;99062.81;2625467;54;20042;-64
2022/05/05 00:55:17;;;;;;;25.60;22.70;;;;;;;13.48;78.17;99055.47;2625277;54;20041;-64
2022/05/05 00:57:46;;;;;;;26.02;22.75;;;;;;;13.48;78.39;99064.25;2621381;54;20034;-63
2022/05/05 01:00:17;;;;;;;25.67;22.92;;;;;;;13.56;78.46;99065.91;2619710;54;20042;-64
2022/05/05 01:02:47;;;;;;;22.75;20.30;;;;;;;13.64;78.16;99071.00;2619834;54;20031;-63
2022/05/05 01:05:17;;;;;;;23.45;20.98;;;;;;;13.69;78.24;99067.72;2620108;54;20565;-63
2022/05/05 01:07:49;;;;;;;25.40;21.63;;;;;;;13.75;78.04;99064.22;2620834;54;20034;-64
2022/05/05 01:10:19;;;;;;;22.45;19.95;;;;;;;13.77;77.56;99070.97;2622651;54;20081;-63
2022/05/05 01:12:48;;;;;;;23.67;21.15;;;;;;;13.74;77.38;99070.56;2625364;54;20118;-63
2022/05/05 01:15:18;;;;;;;27.52;23.90;;;;;;;13.69;77.94;99062.41;2624857;54;20034;-64
2022/05/05 01:17:48;;;;;;;31.02;27.73;;;;;;;13.53;77.23;99067.09;2622946;54;20034;-64
2022/05/05 01:20:19;;;;;;;26.60;23.75;;;;;;;13.38;77.83;99059.34;2621688;54;20117;-64
2022/05/05 01:22:52;;;;;;;26.42;23.38;;;;;;;13.20;78.81;99059.09;2621307;54;20030;-63
2022/05/05 01:28:16;;;;;;;27.90;24.70;;;;;;;13.28;79.26;99063.44;2620859;54;20039;-64
2022/05/05 01:30:48;;;;;;;28.90;25.50;;;;;;;13.19;79.18;99060.13;2621234;54;20031;-64
2022/05/05 01:33:19;;;;;;;30.17;24.55;;;;;;;13.18;79.68;99062.97;2621366;54;20033;-64
2022/05/05 01:35:51;;;;;;;27.02;23.08;;;;;;;13.23;79.37;99065.91;2620626;47;20023;-64
2022/05/05 01:38:24;;;;;;;24.77;22.15;;;;;;;13.25;79.48;99067.31;2621102;54;20038;-66
2022/05/05 01:40:54;;;;;;;26.70;23.85;;;;;;;13.28;79.11;99071.41;2623836;54;20038;-65
2022/05/05 01:43:24;;;;;;;27.52;24.05;;;;;;;13.21;78.83;99073.19;2623058;54;20033;-64
2022/05/05 01:45:53;;;;;;;25.35;22.50;;;;;;;13.13;79.29;99072.38;2624409;54;20035;-64
2022/05/05 01:48:23;;;;;;;26.50;23.00;;;;;;;13.17;79.18;99077.28;2623491;54;20027;-64
2022/05/05 01:50:52;;;;;;;25.88;22.38;;;;;;;13.16;79.33;99078.31;2623504;54;20041;-65
2022/05/05 01:53:25;;;;;;;23.92;21.27;;;;;;;13.25;79.43;99072.63;2623320;54;20570;-66
2022/05/05 01:55:55;;;;;;;24.85;22.23;;;;;;;13.36;79.36;99079.16;2620218;54;20030;-65
2022/05/05 01:58:25;;;;;;;25.48;22.20;;;;;;;13.37;79.20;99078.94;2620445;54;20038;-65
2022/05/05 02:00:55;;;;;;;23.08;20.65;;;;;;;13.47;79.14;99077.72;2621886;54;20038;-64
2022/05/05 02:03:25;;;;;;;23.95;21.48;;;;;;;13.49;78.84;99078.34;2623029;54;20149;-64
2022/05/05 02:05:55;;;;;;;24.00;21.50;;;;;;;13.44;78.39;99086.13;2623134;54;20045;-65
2022/05/05 02:08:27;;;;;;;18.88;17.00;;;;;;;13.38;78.79;99090.38;2622779;54;20031;-65
2022/05/05 02:10:57;;;;;;;19.08;17.13;;;;;;;13.42;79.01;99090.81;2622748;54;20103;-64
2022/05/05 02:13:26;;;;;;;21.90;19.27;;;;;;;13.44;78.51;99081.63;2622542;54;20053;-64
2022/05/05 02:15:56;;;;;;;17.83;15.98;;;;;;;13.40;78.27;99083.06;2622645;54;20030;-65
2022/05/05 02:18:26;;;;;;;18.80;16.90;;;;;;;13.38;78.45;99083.25;2622734;54;20030;-64
2022/05/05 02:20:56;;;;;;;19.50;17.60;;;;;;;13.41;78.17;99084.69;2624714;54;20081;-65
2022/05/05 02:23:28;;;;;;;18.90;16.90;;;;;;;13.42;77.95;99088.16;2623132;54;20038;-66
2022/05/05 02:25:57;;;;;;;17.42;15.57;;;;;;;13.40;78.20;99091.03;2622903;54;20039;-65
2022/05/05 02:28:27;;;;;;;17.50;15.65;;;;;;;13.42;78.02;99096.13;2622417;54;20033;-64
2022/05/05 02:30:57;;;;;;;18.10;16.20;;;;;;;13.43;77.83;99087.97;2623165;54;20031;-64
2022/05/05 02:33:26;;;;;;;18.45;16.38;;;;;;;13.46;77.91;99084.06;2623116;54;20031;-65
2022/05/05 02:38:47;;;;;;;18.02;16.08;;;;;;;13.50;77.76;99087.94;2622775;54;20034;-64
2022/05/05 02:41:17;;;;;;;16.23;14.73;;;;;;;13.46;77.77;99084.06;2623581;54;20030;-66
2022/05/05 02:43:47;;;;;;;17.15;15.18;;;;;;;13.38;77.28;99087.72;2623702;54;20037;-65
2022/05/05 02:46:17;;;;;;;17.00;15.32;;;;;;;13.33;77.24;99088.34;2623074;54;20065;-65
2022/05/05 02:48:46;;;;;;;15.82;14.23;;;;;;;13.33;77.54;99085.69;2622494;54;20034;-63
2022/05/05 02:51:17;;;;;;;15.77;14.15;;;;;;;13.40;77.45;99092.84;2622048;54;20034;-65
2022/05/05 02:56:31;;;;;;;19.67;17.63;;;;;;;13.39;77.45;99094.69;2623116;54;20038;-63
2022/05/05 02:59:00;;;;;;;19.88;17.77;;;;;;;13.36;77.44;99097.75;2623552;39;20435;-64
2022/05/05 03:01:30;;;;;;;21.65;17.65;;;;;;;13.31;78.05;99100.22;2623576;54;20034;-63
2022/05/05 03:04:00;;;;;;;20.50;18.40;;;;;;;13.29;78.17;99102.22;2623646;54;20027;-64
2022/05/05 03:06:29;;;;;;;19.35;17.30;;;;;;;13.23;78.52;99103.88;2623112;54;20026;-64
2022/05/05 03:09:01;;;;;;;20.30;18.10;;;;;;;13.21;78.66;99099.75;2623420;39;20465;-64
2022/05/05 03:11:32;;;;;;;21.90;19.52;;;;;;;13.22;78.42;99112.81;2623312;54;20034;-64
2022/05/05 03:14:02;;;;;;;22.35;19.50;;;;;;;13.17;78.14;99106.47;2623070;54;20037;-64
2022/05/05 03:16:31;;;;;;;23.70;20.25;;;;;;;13.14;78.34;99107.69;2623163;54;20037;-64
2022/05/05 03:19:01;;;;;;;21.70;19.55;;;;;;;13.12;78.84;99104.44;2623154;39;20434;-63
2022/05/05 03:21:31;;;;;;;21.80;19.08;;;;;;;13.10;78.53;99109.09;2623433;54;20070;-65
2022/05/05 03:24:03;;;;;;;19.52;17.40;;;;;;;13.02;78.70;99106.63;2623663;54;20027;-64
2022/05/05 03:26:32;;;;;;;20.17;18.08;;;;;;;12.95;78.72;99106.63;2623819;54;20027;-64
2022/05/05 03:29:04;;;;;;;19.40;17.30;;;;;;;12.85;78.57;99114.16;2622788;54;20541;-64
2022/05/05 03:31:34;;;;;;;19.73;17.25;;;;;;;12.77;78.88;99120.44;2622969;54;20045;-64
2022/05/05 03:34:04;;;;;;;20.02;17.95;;;;;;;12.77;78.91;99116.97;2624260;54;20033;-64
2022/05/05 03:36:34;;;;;;;19.60;17.58;;;;;;;12.61;78.76;99124.28;2624374;54;20038;-64
2022/05/05 03:39:06;;;;;;;22.10;19.75;;;;;;;12.61;79.07;99126.94;2624065;54;20039;-64
2022/05/05 03:41:36;;;;;;;20.95;18.85;;;;;;;12.61;79.63;99126.09;2623365;54;20035;-64
2022/05/05 03:44:07;;;;;;;21.58;19.20;;;;;;;12.58;79.36;99126.50;2623053;47;20030;-64
2022/05/05 03:46:37;;;;;;;20.17;18.08;;;;;;;12.64;79.39;99123.88;2622657;39;20449;-64
2022/05/05 03:49:06;;;;;;;20.23;18.15;;;;;;;12.75;79.69;99124.34;2623890;54;20086;-64
2022/05/05 03:51:36;;;;;;;19.77;17.73;;;;;;;12.78;78.80;99126.59;2624217;54;20034;-64
2022/05/05 03:54:09;;;;;;;19.58;17.65;;;;;;;12.85;79.15;99128.22;2623778;54;20593;-64
2022/05/05 03:56:38;;;;;;;21.67;17.73;;;;;;;12.95;78.75;99133.19;2623693;54;20038;-64
2022/05/05 03:59:08;;;;;;;20.63;18.52;;;;;;;13.04;78.81;99131.16;2623602;54;20046;-65
2022/05/05 04:01:38;;;;;;;23.48;18.48;;;;;;;13.01;78.34;99134.19;2623542;54;20038;-63
2022/05/05 04:04:07;;;;;;;19.95;17.60;;;;;;;13.02;78.18;99136.69;2623833;54;20030;-65
2022/05/05 04:06:37;;;;;;;20.02;17.80;;;;;;;12.99;78.74;99141.56;2623350;46;20038;-65
2022/05/05 04:09:10;;;;;;;21.45;18.48;;;;;;;12.93;78.43;99140.50;2623844;54;20045;-65
2022/05/05 04:11:40;;;;;;;22.67;20.33;;;;;;;12.93;78.53;99147.66;2623576;47;20026;-64
2022/05/05 04:14:09;;;;;;;21.52;19.23;;;;;;;12.91;78.61;99145.22;2623977;54;20030;-65
2022/05/05 04:16:39;;;;;;;20.88;18.67;;;;;;;12.91;78.92;99147.84;2624083;54;20030;-65
2022/05/05 04:19:09;;;;;;;20.77;18.05;;;;;;;12.98;78.72;99150.50;2624113;39;20458;-65
2022/05/05 04:21:38;;;;;;;22.38;19.95;;;;;;;12.92;78.47;99154.78;2624156;54;20042;-64
2022/05/05 04:24:11;;;;;;;22.63;19.33;;;;;;;12.88;78.40;99154.38;2624358;54;20034;-65
2022/05/05 04:26:41;;;;;;;21.80;19.67;;;;;;;12.83;78.45;99156.81;2623859;54;20038;-65
2022/05/05 04:29:11;;;;;;;23.88;21.33;;;;;;;12.83;78.98;99163.94;2623330;54;20034;-64
2022/05/05 04:31:42;;;;;;;21.23;18.95;;;;;;;12.83;79.12;99156.81;2623265;54;20081;-65
2022/05/05 04:34:12;;;;;;;23.60;20.40;;;;;;;12.83;78.83;99151.50;2623397;54;20027;-65
2022/05/05 04:36:42;;;;;;;24.83;19.80;;;;;;;12.89;79.24;99155.19;2623389;54;20023;-65
2022/05/05 04:39:16;;;;;;;22.58;19.65;;;;;;;12.88;79.05;99157.03;2623461;46;20133;-65
2022/05/05 04:41:45;;;;;;;25.23;22.52;;;;;;;12.87;78.86;99167.84;2623793;54;20039;-65
2022/05/05 04:44:15;;;;;;;28.48;20.80;;;;;;;12.79;79.13;99170.66;2623714;54;20064;-65
2022/05/05 04:46:44;;;;;;;22.35;19.95;;;;;;;12.85;79.54;99177.81;2623073;47;20047;-64
2022/05/05 04:49:14;;;;;;;24.75;20.67;;;;;;;12.91;79.34;99184.19;2623584;54;20558;-65
2022/05/05 04:51:44;;;;;;;22.85;20.08;;;;;;;12.88;78.97;99190.69;2623444;47;20045;-64
2022/05/05 04:54:17;;;;;;;21.67;19.30;;;;;;;12.78;79.22;99195.56;2624219;54;20031;-65
2022/05/05 04:56:47;;;;;;;23.77;20.17;;;;;;;12.71;79.31;99192.88;2623629;54;20251;-65
2022/05/05 04:59:17;;;;;;;20.95;18.65;;;;;;;12.61;79.17;99197.69;2623698;54;20030;-64
2022/05/05 05:01:47;;;;;;;26.52;19.98;;;;;;;12.55;79.58;99201.16;2622890;54;20022;-65
2022/05/05 05:04:22;;;;;;;21.90;18.95;;;;;;;12.57;79.61;99209.72;2621602;54;20041;-65
2022/05/05 05:06:52;;;;;;;23.85;20.00;;;;;;;12.55;79.07;99209.94;2622657;54;20062;-69
2022/05/05 05:09:24;;;;;;;24.00;18.88;;;;;;;12.57;79.42;99215.03;2624395;54;20130;-65
2022/05/05 05:11:53;;;;;;;21.58;17.67;;;;;;;12.49;78.94;99217.81;2624683;54;20030;-65
2022/05/05 05:14:23;;;;;;;20.13;17.50;;;;;;;12.49;79.46;99218.69;2624242;54;20038;-64
2022/05/05 05:16:52;;;;;;;25.13;19.15;;;;;;;12.50;78.89;99222.13;2623879;54;20038;-66
2022/05/05 05:19:25;;;;;;;27.33;23.65;;;;;;;12.60;79.09;99223.41;2625617;39;20465;-65
2022/05/05 05:21:54;;;;;;;26.60;21.17;;;;;;;12.60;79.16;99231.38;2624073;54;20045;-65
2022/05/05 05:24:26;;;;;;;24.73;18.35;;;;;;;12.50;79.12;99235.41;2622668;54;20034;-66
2022/05/05 05:26:56;;;;;;;25.00;19.70;;;;;;;12.62;79.71;99239.16;2620485;54;20065;-65
2022/05/05 05:29:26;;;;;;;20.30;17.67;;;;;;;12.70;79.04;99238.19;2623386;39;20450;-66
2022/05/05 05:31:55;;;;;;;20.55;18.30;;;;;;;12.63;78.74;99240.78;2623493;54;20037;-65
2022/05/05 05:34:25;;;;;;;21.40;18.40;;;;;;;12.69;78.76;99239.97;2623455;54;20042;-65
2022/05/05 05:36:55;;;;;;;24.38;18.77;;;;;;;12.76;78.67;99245.34;2623624;39;20446;-65
2022/05/05 05:39:27;;;;;;;18.17;16.35;;;;;;;12.70;78.48;99254.91;2621247;47;20034;-65
2022/05/05 05:41:57;;;;;;;21.20;17.75;;;;;;;12.63;78.68;99257.50;2621959;39;20410;-65
2022/05/05 05:44:26;;;;;;;24.80;16.83;;;;;;;12.67;78.41;99249.97;2620689;54;20034;-65
2022/05/05 05:46:56;;;;;;;23.60;17.23;;;;;;;12.70;78.36;99254.09;2620129;54;20049;-66
2022/05/05 05:49:25;;;;;;;20.15;16.88;;;;;;;12.70;77.88;99256.75;2619521;54;20034;-65
2022/05/05 05:51:55;;;;;;;22.25;19.25;;;;;;;12.74;77.92;99258.81;2619738;54;20038;-65
2022/05/05 05:54:27;;;;;;;23.00;19.60;;;;;;;12.63;77.96;99251.38;2619785;54;20046;-65
2022/05/05 05:56:57;;;;;;;19.85;17.40;;;;;;;12.62;78.25;99255.06;2619744;54;20035;-66
2022/05/05 05:59:26;;;;;;;21.67;19.27;;;;;;;12.49;78.76;99257.59;2623034;54;20027;-64
2022/05/05 06:04:38;;;;;;;22.45;18.88;;;;;;;12.50;78.81;99257.44;2622802;54;20050;-64
2022/05/05 06:07:08;;;;;;;23.58;18.38;;;;;;;12.42;78.79;99257.56;2622456;54;20030;-65
2022/05/05 06:09:40;;;;;;;22.35;17.63;;;;;;;12.41;78.32;99263.91;2623017;54;20038;-65
2022/05/05 06:12:11;;;;;;;21.88;18.08;;;;;;;12.38;78.47;99264.28;2623235;54;20038;-66
2022/05/05 06:14:40;;;;;;;20.02;17.73;;;;;;;12.34;78.20;99266.50;2623589;39;20415;-65
2022/05/05 06:17:10;;;;;;;25.10;17.13;;;;;;;12.32;77.93;99271.16;2622494;39;20419;-65
2022/05/05 06:19:41;;;;;;;21.67;16.50;;;;;;;12.19;78.14;99273.69;2622416;39;20458;-65
2022/05/05 06:22:11;;;;;;;20.38;16.00;;;;;;;12.28;78.51;99272.53;2622260;54;20030;-65
2022/05/05 06:24:43;;;;;;;21.88;15.57;;;;;;;12.33;78.17;99278.13;2622638;54;20039;-64
2022/05/05 06:27:12;;;;;;;17.23;15.43;;;;;;;12.49;78.05;99281.47;2626817;39;20434;-64
2022/05/05 06:29:42;;;;;;;19.40;14.38;;;;;;;12.61;77.44;99280.78;2622816;39;20442;-65
2022/05/05 06:32:12;;;;;;;17.13;14.40;;;;;;;12.61;76.43;99282.56;2621989;54;20042;-64
2022/05/05 06:34:42;;;;;;;22.65;15.43;;;;;;;12.63;75.86;99283.22;2621965;54;20081;-64
2022/05/05 06:37:12;;;;;;;20.85;15.10;;;;;;;12.75;76.00;99292.28;2621968;54;20559;-66
2022/05/05 06:39:44;;;;;;;19.20;13.98;;;;;;;12.81;75.73;99286.16;2622298;54;20026;-65
2022/05/05 06:42:14;;;;;;;18.85;14.63;;;;;;;12.84;75.19;99280.47;2622106;54;20030;-65
2022/05/05 06:44:44;;;;;;;18.95;14.95;;;;;;;12.84;74.56;99282.31;2621989;54;20038;-65
2022/05/05 06:47:14;;;;;;;17.90;14.48;;;;;;;12.77;74.82;99284.09;2621576;54;20142;-64
2022/05/05 06:49:43;;;;;;;19.50;14.20;;;;;;;12.60;74.77;99284.41;2621574;54;20042;-64
2022/05/05 06:52:13;;;;;;;20.27;14.93;;;;;;;12.64;75.21;99285.66;2622619;39;20435;-65
2022/05/05 06:55:06;;;;;;;18.40;13.52;;;;;;;12.70;74.99;99291.22;2622920;54;20038;-66
2022/05/05 06:57:36;;;;;;;17.73;13.77;;;;;;;12.64;74.71;99284.84;2622408;54;20033;-64
2022/05/05 07:00:06;;;;;;;18.20;15.45;;;;;;;12.51;74.41;99282.94;2622515;54;20279;-64
2022/05/05 07:02:36;;;;;;;18.45;14.57;;;;;;;12.39;74.84;99298.53;2623111;54;20037;-65
2022/05/05 07:07:48;;;;;;;18.63;13.82;;;;;;;12.18;75.41;99293.28;2623147;54;20030;-65
2022/05/05 07:13:06;;;;;;;15.98;13.30;;;;;;;12.47;75.01;99300.22;2623537;54;20038;-65
2022/05/05 07:15:37;;;;;;;18.42;14.65;;;;;;;12.54;74.83;99293.16;2623452;54;20077;-65
2022/05/05 07:18:07;;;;;;;17.83;14.30;;;;;;;12.68;74.97;99302.00;2622658;54;20019;-65
2022/05/05 07:20:37;;;;;;;20.58;17.30;;;;;;;12.83;75.19;99307.22;2622606;54;20535;-66
2022/05/05 07:23:11;;;;;;;18.50;13.77;;;;;;;12.85;74.49;99303.34;2623293;54;20565;-65
2022/05/05 07:25:44;;;;;;;17.15;13.40;;;;;;;12.87;74.44;99303.97;2621804;54;20129;-67
2022/05/05 07:28:15;;;;;;;16.23;13.30;;;;;;;12.87;74.33;99306.63;2622514;54;20089;-65
2022/05/05 07:30:45;;;;;;;18.58;14.02;;;;;;;13.08;73.72;99304.91;2623100;54;20033;-66
2022/05/05 07:33:14;;;;;;;18.35;14.13;;;;;;;13.23;73.84;99307.47;2622574;54;20534;-65
2022/05/05 07:35:45;;;;;;;18.13;13.20;;;;;;;13.29;73.15;99310.13;2622719;54;20073;-64
2022/05/05 07:38:15;;;;;;;17.50;13.00;;;;;;;13.31;72.86;99309.97;2621823;54;20534;-64
2022/05/05 07:40:52;;;;;;;18.08;12.35;;;;;;;13.29;72.23;99312.78;2622149;54;20839;-64
2022/05/05 07:43:23;;;;;;;14.75;13.10;;;;;;;13.28;72.51;99305.03;2622187;54;20046;-66
2022/05/05 07:45:53;;;;;;;19.10;13.63;;;;;;;13.13;71.60;99315.75;2622397;54;20053;-65
2022/05/05 07:48:23;;;;;;;16.50;12.40;;;;;;;13.17;72.60;99317.00;2622265;54;20038;-65
2022/05/05 07:50:52;;;;;;;14.68;13.10;;;;;;;13.32;72.53;99319.56;2621818;47;20041;-66
2022/05/05 07:53:22;;;;;;;16.83;13.57;;;;;;;13.38;71.83;99321.41;2622529;54;20807;-64
2022/05/05 07:55:54;;;;;;;17.95;13.75;;;;;;;13.36;71.31;99324.28;2622930;54;20027;-66
2022/05/05 07:58:24;;;;;;;19.00;14.20;;;;;;;13.17;71.14;99326.81;2622632;46;20050;-66
2022/05/05 08:00:53;;;;;;;21.25;13.90;;;;;;;13.18;71.64;99321.28;2622608;47;20026;-66
2022/05/05 08:03:23;;;;;;;19.63;15.15;;;;;;;13.44;72.11;99323.28;2622182;54;20045;-65
2022/05/05 08:05:53;;;;;;;23.15;14.75;;;;;;;13.68;72.26;99332.56;2622806;54;20581;-65
2022/05/05 08:08:23;;;;;;;17.77;13.82;;;;;;;13.84;71.52;99324.25;2622466;54;20045;-65
2022/05/05 08:10:55;;;;;;;21.77;13.75;;;;;;;13.85;71.89;99333.03;2623476;54;20050;-65
2022/05/05 08:13:25;;;;;;;15.98;13.82;;;;;;;14.04;71.83;99334.06;2623474;47;20123;-64
2022/05/05 08:15:54;;;;;;;18.45;14.07;;;;;;;14.21;71.83;99340.66;2623098;47;20106;-66
2022/05/05 08:18:24;;;;;;;20.80;14.00;;;;;;;14.26;70.94;99335.56;2623247;54;20030;-66
2022/05/05 08:20:54;;;;;;;17.65;13.63;;;;;;;14.34;70.76;99338.00;2623420;54;20577;-66
2022/05/05 08:23:23;;;;;;;17.23;13.75;;;;;;;14.43;70.60;99338.63;2623756;54;20038;-65
2022/05/05 08:28:40;;;;;;;19.38;14.57;;;;;;;14.59;70.06;99348.06;2622776;54;20034;-65
2022/05/05 08:31:12;;;;;;;17.88;13.63;;;;;;;14.64;69.38;99350.94;2623721;54;20050;-64
2022/05/05 08:33:41;;;;;;;16.88;13.57;;;;;;;14.76;69.65;99354.59;2624117;39;20539;-64
2022/05/05 08:36:11;;;;;;;20.90;15.23;;;;;;;14.74;69.29;99354.00;2623028;54;20538;-65
2022/05/05 08:38:41;;;;;;;17.10;14.70;;;;;;;14.78;68.94;99351.75;2622808;54;20073;-65
2022/05/05 08:41:14;;;;;;;18.23;14.30;;;;;;;14.68;69.21;99367.31;2621496;54;20110;-65
2022/05/05 08:43:44;;;;;;;20.45;15.45;;;;;;;14.78;69.78;99367.72;2623118;54;20034;-64
2022/05/05 08:46:31;;;;;;;19.85;13.80;;;;;;;14.92;69.78;99369.34;2622821;54;20038;-66
2022/05/05 08:49:05;;;;;;;17.27;14.57;;;;;;;14.96;68.98;99375.06;2621427;54;20031;-66
2022/05/05 08:51:41;;;;;;;18.80;15.40;;;;;;;14.96;68.49;99361.75;2622408;54;20035;-65
2022/05/05 08:54:16;;;;;;;19.02;14.48;;;;;;;14.79;67.76;99370.16;2622589;54;20157;-65
2022/05/05 08:56:50;;;;;;;18.42;14.35;;;;;;;14.71;68.82;99378.34;2622100;46;20023;-65
2022/05/05 08:59:21;;;;;;;18.00;14.23;;;;;;;14.72;68.61;99381.84;2622506;54;20040;-65
2022/05/05 09:01:53;;;;;;;16.50;13.93;;;;;;;14.70;69.32;99374.06;2620989;54;20035;-65
2022/05/05 09:04:26;;;;;;;14.85;12.45;;;;;;;14.74;68.59;99379.81;2620182;54;20093;-65
2022/05/05 09:06:56;;;;;;;19.10;12.82;;;;;;;14.83;68.39;99381.22;2620241;54;20045;-65
2022/05/05 09:09:30;;;;;;;16.48;12.02;;;;;;;15.01;68.33;99376.06;2622133;54;20033;-65
2022/05/05 09:12:13;;;;;;;17.40;12.10;;;;;;;15.11;67.87;99379.16;2622759;54;20030;-66
2022/05/05 09:14:45;;;;;;;20.47;12.23;;;;;;;14.98;66.97;99383.66;2622599;54;20034;-66
2022/05/05 09:17:17;;;;;;;18.35;12.63;;;;;;;14.92;66.73;99384.50;2622238;54;20038;-65
2022/05/05 09:19:49;;;;;;;15.65;11.55;;;;;;;15.01;67.08;99393.91;2622077;54;20035;-64
2022/05/05 09:22:21;;;;;;;15.10;11.98;;;;;;;14.90;66.45;99386.53;2622150;54;20062;-66
2022/05/05 09:24:52;;;;;;;22.17;12.23;;;;;;;14.93;67.35;99392.25;2621921;54;20047;-64
2022/05/05 09:27:26;;;;;;;14.95;12.52;;;;;;;14.92;66.79;99382.63;2621855;54;20045;-66
2022/05/05 09:30:04;;;;;;;14.70;12.32;;;;;;;14.91;66.95;99383.69;2622657;54;20030;-66
2022/05/05 09:32:35;;;;;;;14.57;12.48;;;;;;;14.88;66.74;99383.25;2622492;54;20034;-66
2022/05/05 09:35:08;;;;;;;17.70;12.60;;;;;;;14.82;66.87;99382.25;2623765;54;20031;-67
2022/05/05 09:37:38;;;;;;;19.92;13.43;;;;;;;14.76;66.64;99391.88;2624578;54;20043;-66
2022/05/05 09:40:17;;;;;;;16.65;12.73;;;;;;;14.76;67.41;99388.38;2623734;54;20122;-64
2022/05/05 09:42:51;;;;;;;15.63;11.20;;;;;;;14.84;67.36;99396.16;2623711;54;20034;-65
2022/05/05 09:45:23;;;;;;;15.43;13.00;;;;;;;14.89;67.72;99398.19;2623313;54;20034;-67
2022/05/05 09:47:56;;;;;;;17.52;13.00;;;;;;;14.93;67.87;99400.25;2623898;54;20031;-66
2022/05/05 09:50:27;;;;;;;17.98;13.45;;;;;;;14.96;68.17;99399.84;2624413;54;20034;-66
2022/05/05 09:58:27;;;;;;;18.17;12.82;;;;;;;14.88;68.17;99404.56;2622229;54;20038;-67
2022/05/05 10:01:05;;;;;;;17.60;13.45;;;;;;;14.91;68.64;99402.31;2621453;47;20031;-66
2022/05/05 10:06:29;;;;;;;17.77;12.15;;;;;;;14.85;68.46;99406.59;2621510;54;20039;-66
2022/05/05 10:09:03;;;;;;;16.25;13.02;;;;;;;14.75;68.25;99410.72;2621544;54;20046;-66
2022/05/05 10:11:33;;;;;;;16.27;12.77;;;;;;;14.72;68.35;99411.09;2621910;39;20466;-66
2022/05/05 10:14:10;;;;;;;15.90;12.07;;;;;;;14.73;68.84;99412.75;2622000;54;20077;-66
2022/05/05 10:16:42;;;;;;;17.75;13.35;;;;;;;14.70;68.39;99408.66;2617829;54;20034;-66
2022/05/05 10:19:15;;;;;;;18.70;12.77;;;;;;;14.78;68.44;99403.13;2617649;54;20081;-67
2022/05/05 10:21:54;;;;;;;20.10;12.27;;;;;;;14.85;68.96;99403.94;2617830;54;20042;-67
2022/05/05 10:24:29;;;;;;;17.73;12.68;;;;;;;15.06;68.41;99402.06;2617892;54;20034;-66
2022/05/05 10:27:01;;;;;;;17.35;12.63;;;;;;;15.17;68.00;99398.78;2617542;54;20027;-67
2022/05/05 10:29:39;;;;;;;14.53;11.83;;;;;;;15.28;67.60;99400.00;2617936;54;20034;-67
2022/05/05 10:32:11;;;;;;;14.45;12.25;;;;;;;15.36;67.48;99400.59;2617878;54;20569;-67
2022/05/05 10:34:41;;;;;;;19.15;13.60;;;;;;;15.43;67.22;99405.91;2617810;54;20037;-67
2022/05/05 10:37:14;;;;;;;16.17;12.32;;;;;;;15.46;66.39;99402.00;2617632;54;20042;-68
2022/05/05 10:39:48;;;;;;;14.23;12.13;;;;;;;15.49;66.38;99398.91;2617982;54;20549;-66
2022/05/05 10:42:35;;;;;;;15.82;12.38;;;;;;;15.52;66.11;99401.19;2617933;54;20030;-68
2022/05/05 10:45:12;;;;;;;18.10;12.73;;;;;;;15.54;65.96;99404.44;2618045;54;20026;-69
2022/05/05 10:48:12;;;;;;;16.27;12.18;;;;;;;15.47;65.70;99391.16;2617831;39;20434;-68
2022/05/05 10:50:50;;;;;;;15.30;12.15;;;;;;;15.54;65.42;99399.91;2618169;39;20450;-68
2022/05/05 10:53:31;;;;;;;19.65;13.98;;;;;;;15.70;65.41;99400.50;2617142;47;20053;-70
2022/05/05 10:56:04;;;;;;;16.98;12.77;;;;;;;15.79;64.72;99386.72;2617753;54;20060;-68
2022/05/05 10:58:58;;;;;;;17.33;12.75;;;;;;;16.03;65.20;99395.03;2617550;54;20546;-69
2022/05/05 11:01:33;;;;;;;16.73;12.40;;;;;;;16.12;64.76;99391.06;2617886;54;20126;-68
2022/05/05 11:04:25;;;;;;;19.80;12.07;;;;;;;16.22;65.09;99390.63;2618055;54;20027;-69
2022/05/05 11:07:36;;;;;;;17.70;12.77;;;;;;;16.40;64.34;99384.53;2617586;54;20053;-68
2022/05/05 11:10:11;;;;;;;19.08;12.30;;;;;;;16.45;63.76;99392.72;2618167;54;20038;-69
2022/05/05 11:12:40;;;;;;;16.42;12.02;;;;;;;16.62;63.16;99393.84;2617677;54;20046;-70
2022/05/05 11:23:29;;;;;;;17.70;10.27;;;;;;;16.66;60.40;99400.38;2619843;47;20069;-68
2022/05/05 11:26:00;;;;;;;15.73;10.65;;;;;;;16.63;60.77;99395.47;2618658;39;20458;-70
2022/05/05 11:28:32;;;;;;;14.95;10.52;;;;;;;16.68;60.48;99400.16;2617357;54;20080;-67
2022/05/05 11:31:02;;;;;;;16.15;10.32;;;;;;;16.68;58.43;99400.97;2618581;47;20034;-68
2022/05/05 11:33:37;;;;;;;18.27;11.50;;;;;;;16.87;58.82;99390.38;2617863;54;20031;-68
2022/05/05 11:36:08;;;;;;;15.02;11.00;;;;;;;16.79;59.64;99392.28;2617766;54;20042;-67
2022/05/05 11:38:44;;;;;;;19.80;12.35;;;;;;;16.90;59.80;99392.59;2616504;47;20057;-67
2022/05/05 11:41:13;;;;;;;15.52;11.60;;;;;;;16.96;60.58;99392.53;2617161;47;20045;-68
2022/05/05 11:46:33;;;;;;;12.60;11.30;;;;;;;16.86;61.41;99392.22;2623148;47;20041;-67
2022/05/05 11:49:06;;;;;;;13.32;11.07;;;;;;;16.85;61.58;99385.25;2623378;54;20034;-68
2022/05/05 11:51:37;;;;;;;19.50;14.38;;;;;;;17.11;61.35;99383.38;2623978;54;20037;-67
2022/05/05 11:54:10;;;;;;;16.00;10.18;;;;;;;17.14;60.92;99382.91;2622441;54;20042;-66
2022/05/05 11:56:47;;;;;;;20.02;11.70;;;;;;;17.18;60.18;99384.09;2620718;47;20035;-68
2022/05/05 12:02:04;;;;;;;15.43;11.00;;;;;;;17.03;61.24;99389.81;2624711;39;20454;-68
2022/05/05 12:04:40;;;;;;;14.15;10.55;;;;;;;17.11;60.46;99380.72;2623148;54;20046;-66
2022/05/05 12:07:18;;;;;;;13.57;9.52;;;;;;;16.92;59.57;99387.84;2623988;54;20042;-68
2022/05/05 12:09:48;;;;;;;14.40;10.13;;;;;;;16.83;59.38;99385.47;2620308;54;20038;-68
2022/05/05 12:12:20;;;;;;;11.45;9.63;;;;;;;16.91;59.32;99386.22;2618503;54;20118;-67
2022/05/05 12:14:52;;;;;;;12.93;8.70;;;;;;;16.79;59.47;99386.13;2618683;39;20708;-66
2022/05/05 12:17:23;;;;;;;12.85;9.23;;;;;;;16.70;59.51;99390.09;2617445;54;20030;-68
2022/05/05 12:19:57;;;;;;;13.20;9.00;;;;;;;16.64;59.42;99398.94;2617540;54;20052;-68
2022/05/05 12:22:31;;;;;;;;;;;;;;;16.59;59.27;99389.75;2618299;54;20073;-68